Flight Track Log - Related Links

Times and Time Zones

All times are in EDT time to prevent confusion due to time zone crossing. See the UAL4236 flight status page for this flight to view local times or setup timezone preferences in your user account.

Time Position Orientation Groundspeed Altitude Reporting Facility
EDT Latitude Longitude Course Direction KTS MPH feet Rate Location/Type
Sat 12:28:41 PM 31.7978 -106.3128 95° East 191 220 5,700  Level Albuquerque Center
Sat 12:29:07 PM 31.7931 -106.2703 97° East 236 272 7,100 2,323 Climbing Albuquerque Center
Sat 12:29:43 PM 31.7889 -106.2186 95° East 247 284 8,100 1,959 Climbing Albuquerque Center
Sat 12:30:45 PM 31.7786 -106.1250 97° East 286 329 10,300 1,805 Climbing Albuquerque Center
Sat 12:31:00 PM 31.7376 -105.8514 96° East  Level FlightAware Approximate
Sat 12:31:46 PM 31.7669 -106.0283 98° East 299 344 11,800  Level Albuquerque Center
Sat 12:32:00 PM 31.7222 -105.7221 100° East  Level FlightAware Approximate
Sat 12:32:48 PM 31.7553 -105.9192 97° East 333 383 12,900  Level Albuquerque Center
Sat 12:33:00 PM 31.7085 -105.5926 96° East  Level FlightAware Approximate
Sat 12:33:50 PM 31.7417 -105.8036 98° East 355 409 14,000  Level Albuquerque Center
Sat 12:34:52 PM 31.7286 -105.6825 97° East 371 427 15,100 1,065 Climbing Albuquerque Center
Sat 12:35:54 PM 31.7125 -105.5608 99° East 377 434 16,200 1,317 Climbing Albuquerque Center
Sat 12:36:55 PM 31.6961 -105.4086 97° East 390 449 17,800 1,463 Climbing Albuquerque Center
Sat 12:37:57 PM 31.6822 -105.2800 97° East 396 456 19,200 1,306 Climbing Albuquerque Center
Sat 12:38:59 PM 31.6658 -105.1517 99° East 396 456 20,500 1,258 Climbing Albuquerque Center
Sat 12:40:01 PM 31.6517 -105.0203 97° East 401 461 21,800 1,258 Climbing Albuquerque Center
Sat 12:41:03 PM 31.6350 -104.8881 98° East 406 467 23,100 1,258 Climbing Albuquerque Center
Sat 12:42:05 PM 31.6197 -104.7558 98° East 408 470 24,400 1,258 Climbing Albuquerque Center
Sat 12:43:07 PM 31.6033 -104.6256 98° East 406 467 25,700 1,268 Climbing Albuquerque Center
Sat 12:44:08 PM 31.5872 -104.4969 98° East 403 464 27,000 1,317 Climbing Albuquerque Center
Sat 12:45:10 PM 31.5683 -104.3436 98° East 399 459 28,400 1,210 Climbing Albuquerque Center
Sat 12:46:12 PM 31.5525 -104.2164 98° East 397 457 29,500 1,065 Climbing Albuquerque Center
Sat 12:47:14 PM 31.5364 -104.0889 98° East 396 456 30,600 1,065 Climbing Albuquerque Center
Sat 12:48:16 PM 31.5200 -103.9617 99° East 395 455 31,700 1,016 Climbing Albuquerque Center
Sat 12:49:18 PM 31.5050 -103.8322 98° East 399 459 32,700 629 Climbing Albuquerque Center
Sat 12:50:20 PM 31.4867 -103.7011 99° East 408 470 33,000 435 Climbing Albuquerque Center
Sat 12:51:22 PM 31.4658 -103.5308 98° East 434 499 33,600 774 Climbing Albuquerque Center
Sat 12:52:24 PM 31.4464 -103.3900 99° East 440 506 34,600 677 Climbing Albuquerque Center
Sat 12:53:26 PM 31.4289 -103.2478 98° East 440 506 35,000 194 Climbing Albuquerque Center
Sat 12:54:28 PM 31.4111 -103.1006 98° East 453 521 35,000  Level Albuquerque Center
Sat 12:55:30 PM 31.3917 -102.9475 98° East 470 541 35,000 -48 Level Albuquerque Center
Sat 12:56:32 PM 31.3714 -102.7947 99° East 476 548 34,900  Descending Albuquerque Center
Sat 12:57:34 PM 31.3475 -102.6078 98° East 482 555 35,000 48 Climbing Albuquerque Center
Sat 12:58:36 PM 31.3286 -102.4586 98° East 491 565 35,000  Level Albuquerque Center
Sat 12:59:38 PM 31.3081 -102.3047 99° East 487 560 35,000  Level Albuquerque Center
Sat 01:00:40 PM 31.2892 -102.1558 98° East 472 543 35,000  Level Albuquerque Center
Sat 01:01:42 PM 31.2644 -101.9808 99° East 461 531 35,000  Level Albuquerque Center
Sat 01:02:44 PM 31.2461 -101.8361 98° East 463 533 35,000  Level Albuquerque Center
Sat 01:03:46 PM 31.2244 -101.6833 99° East 474 545 35,000  Level Albuquerque Center
Sat 01:04:40 PM 31.2036 -101.5289 99° East 481 554 35,000  Level Houston Center
Sat 01:05:41 PM 31.1833 -101.3769 99° East 478 550 35,000  Level Houston Center
Sat 01:06:43 PM 31.1617 -101.2250 99° East 468 539 35,000  Level Houston Center
Sat 01:07:45 PM 31.1414 -101.0764 99° East 465 535 35,000  Level Houston Center
Sat 01:08:47 PM 31.1208 -100.9303 99° East 458 527 35,000  Level Houston Center
Sat 01:09:49 PM 31.1006 -100.7831 99° East 458 527 35,000  Level Houston Center
Sat 01:10:51 PM 31.0786 -100.6331 100° East 468 539 35,000  Level Houston Center
Sat 01:11:52 PM 31.0553 -100.4794 100° East 477 549 35,000  Level Houston Center
Sat 01:12:54 PM 31.0289 -100.2914 99° East 489 563 35,000  Level Houston Center
Sat 01:13:56 PM 31.0047 -100.1319 100° East 495 570 35,000  Level Houston Center
Sat 01:14:58 PM 30.9803 -99.9717 100° East 501 577 35,000  Level Houston Center
Sat 01:16:00 PM 30.9561 -99.8128 100° East 497 572 35,000  Level Houston Center
Sat 01:17:02 PM 30.9331 -99.6558 100° East 490 564 35,000  Level Houston Center
Sat 01:18:03 PM 30.9100 -99.5003 100° East 487 560 35,000  Level Houston Center
Sat 01:19:05 PM 30.8844 -99.3433 101° East 491 565 35,000  Level Houston Center
Sat 01:20:07 PM 30.8600 -99.1903 101° East 483 556 35,000  Level Houston Center
Sat 01:21:09 PM 30.8331 -99.0239 101° East 482 555 35,000  Level Houston Center
Sat 01:22:11 PM 30.8083 -98.8686 100° East 484 557 35,000  Level Houston Center
Sat 01:23:13 PM 30.7969 -98.6839 94° East 490 564 35,000  Level Houston Center
Sat 01:24:14 PM 30.8008 -98.5231 88° East 495 570 35,000 -146 Level Houston Center
Sat 01:25:16 PM 30.8053 -98.3642 88° East 490 564 34,700 -823 Descending Houston Center
Sat 01:26:18 PM 30.8075 -98.2044 89° East 488 562 33,300 -2,081 Descending Houston Center
Sat 01:27:20 PM 30.8108 -98.0503 89° East 477 549 30,400 -2,081 Descending Houston Center
Sat 01:28:22 PM 30.8125 -97.8969 89° East 472 543 29,000 -677 Descending Houston Center
Sat 01:29:24 PM 30.8150 -97.7419 89° East 475 547 29,000  Level Houston Center
Sat 01:30:25 PM 30.8169 -97.5828 89° East 487 560 29,000  Level Houston Center
Sat 01:31:27 PM 30.8178 -97.3978 90° East 492 566 29,000  Level Houston Center
Sat 01:32:29 PM 30.8003 -97.2414 97° East 494 568 29,000  Level Houston Center
Sat 01:33:31 PM 30.7642 -97.0914 106° East 486 559 29,000  Level Houston Center
Sat 01:34:33 PM 30.7269 -96.9397 106° East 486 559 29,000 -1,355 Level Houston Center
Sat 01:35:35 PM 30.6894 -96.7894 106° East 486 559 26,200 -3,145 Descending Houston Center
Sat 01:36:37 PM 30.6511 -96.6439 107° East 474 545 22,500 -3,462 Descending Houston Center
Sat 01:37:19 PM 30.6203 -96.5228 106° East 440 506 20,200 -2,806 Descending Houston Center
Sat 01:37:39 PM 30.6122 -96.4858 104° East 438 504 19,600 -1,967 Descending Houston Center
Sat 01:38:20 PM 30.5889 -96.3978 107° East 412 474 18,200 -2,066 Descending Houston Center
Sat 01:38:40 PM 30.5808 -96.3542 102° East 421 484 17,500 -2,164 Descending Houston Center
Sat 01:39:21 PM 30.5547 -96.2658 109° East 411 473 16,000 -1,935 Descending Houston Center
Sat 01:39:42 PM 30.5472 -96.2261 102° East 413 475 15,500 -1,967 Descending Houston Center
Sat 01:40:22 PM 30.5228 -96.1361 107° East 413 475 14,000 -2,129 Descending Houston Center
Sat 01:40:44 PM 30.5150 -96.0997 104° East 407 468 13,300 -2,361 Descending Houston Center
Sat 01:41:23 PM 30.4917 -96.0161 108° East 369 425 11,600 -2,032 Descending Houston Center
Sat 01:41:46 PM 30.4872 -95.9928 102° East 384 442 11,200 -1,548 Descending Houston Center
Sat 01:42:25 PM 30.4628 -95.9006 107° East 348 400 10,000 -1,143 Descending Houston Center
Sat 01:42:49 PM 30.4519 -95.8664 110° East 340 391 10,000 -492 Level Houston Center
Sat 01:43:26 PM 30.4128 -95.8314 142° Southeast 259 298 9,500 -871 Descending Houston Center
Sat 01:43:51 PM 30.3903 -95.8214 159° South 270 311 9,100 -1,180 Descending Houston Center
Sat 01:44:27 PM 30.3447 -95.7981 156° South 269 310 8,300 -1,258 Descending Houston Center
Sat 01:44:53 PM 30.3222 -95.7858 155° Southeast 268 308 7,800 -1,377 Descending Houston Center
Sat 01:45:28 PM 30.2744 -95.7628 157° South 260 299 6,900 -1,161 Descending Houston Center
Sat 01:45:55 PM 30.2572 -95.7531 154° Southeast 257 296 6,600 -1,279 Descending Houston Center
Sat 01:46:29 PM 30.2128 -95.7314 157° South 238 274 5,600 -1,548 Descending Houston Center
Sat 01:46:57 PM 30.1964 -95.7225 155° Southeast 241 277 5,000 -1,574 Descending Houston Center
Sat 01:47:30 PM 30.1514 -95.7000 157° South 235 270 4,000 -968 Descending Houston Center
Sat 01:47:59 PM 30.1253 -95.6836 152° Southeast 235 270 4,000 -197 Level Houston Center
Sat 01:48:31 PM 30.0917 -95.6658 155° Southeast 233 268 3,800 -581 Descending Houston Center
Sat 01:49:01 PM 30.0672 -95.6522 154° Southeast 233 268 3,400 -774 Descending Houston Center
Sat 01:49:33 PM 30.0342 -95.6339 154° Southeast 232 267 3,000 -387 Descending Houston Center
Sat 01:50:03 PM 30.0103 -95.6206 154° Southeast 230 265 3,000  Level Houston Center
Sat 01:50:34 PM 29.9939 -95.5833 117° Southeast 219 252 3,000  Level Houston Center
Sat 01:51:05 PM 29.9928 -95.5556 93° East 225 259 3,000 -197 Level Houston Center
Sat 01:51:35 PM 29.9919 -95.5136 91° East 217 250 2,800 -677 Descending Houston Center
Sat 01:52:07 PM 29.9933 -95.4869 87° East 218 251 2,300 -938 Descending Houston Center

Login

Don't have an account? Register now (free) for customized features, flight alerts, and more!